Time;durP1;ratioP1;P1;durP2;ratioP2;P2;SDS_P1;SDS_P2;PMS_P1;PMS_P2;Temp;Humidity;BMP_temperature;BMP_pressure;BME280_temperature;BME280_humidity;BME280_pressure;Samples;Min_cycle;Max_cycle;Signal;HPM_P1;HPM_P2
2023/07/21 03:00:35;;;;;;;0.95;0.90;;;26.70;43.30;;;;;;5900581;23;45813;-88
2023/07/21 03:03:00;;;;;;;0.73;0.73;;;26.70;43.40;;;;;;4869568;28;45560;-86
2023/07/21 03:05:29;;;;;;;0.90;0.90;;;26.70;43.30;;;;;;4865887;28;45307;-84
2023/07/21 03:07:55;;;;;;;1.30;1.02;;;26.70;43.30;;;;;;4902338;28;45588;-84
2023/07/21 03:10:21;;;;;;;1.08;0.88;;;26.70;43.30;;;;;;4914498;28;46681;-88
2023/07/21 03:12:47;;;;;;;0.75;0.75;;;26.70;43.40;;;;;;4923728;28;45226;-83
2023/07/21 03:15:15;;;;;;;1.25;0.90;;;26.70;43.30;;;;;;4914137;28;45299;-83
2023/07/21 03:17:41;;;;;;;1.40;0.70;;;26.70;43.30;;;;;;4886459;28;44883;-86
2023/07/21 03:20:15;;;;;;;1.00;0.80;;;26.70;43.30;;;;;;4900522;28;46019;-88
2023/07/21 03:22:42;;;;;;;1.58;0.98;;;26.70;43.30;;;;;;4900894;28;44940;-86
2023/07/21 03:25:08;;;;;;;1.02;0.90;;;26.70;43.30;;;;;;4900399;28;45373;-85
2023/07/21 03:27:34;;;;;;;0.82;0.75;;;26.70;43.30;;;;;;4899669;28;45209;-82
2023/07/21 03:30:01;;;;;;;0.80;0.80;;;26.70;43.30;;;;;;4918348;28;46358;-84
2023/07/21 03:32:27;;;;;;;0.70;0.65;;;26.60;43.20;;;;;;4893038;28;45261;-84
2023/07/21 03:34:54;;;;;;;1.08;0.98;;;26.70;43.30;;;;;;4900600;28;44766;-82
2023/07/21 03:37:23;;;;;;;0.80;0.80;;;26.70;43.30;;;;;;4915047;28;45625;-86
2023/07/21 03:39:49;;;;;;;1.10;1.00;;;26.70;43.30;;;;;;4912968;28;46739;-82
2023/07/21 03:42:14;;;;;;;0.97;0.87;;;26.60;43.20;;;;;;4915875;28;45318;-84
2023/07/21 03:44:40;;;;;;;0.80;0.80;;;26.70;43.30;;;;;;4902546;28;44754;-82
2023/07/21 03:47:06;;;;;;;0.80;0.80;;;26.60;43.20;;;;;;4916553;28;45961;-84
2023/07/21 03:49:32;;;;;;;1.27;0.93;;;26.70;43.30;;;;;;4900972;28;46692;-82
2023/07/21 03:51:57;;;;;;;1.05;0.95;;;26.70;43.30;;;;;;4894472;28;45531;-83
2023/07/21 03:54:23;;;;;;;1.13;0.83;;;26.70;43.30;;;;;;4906478;28;45364;-83
2023/07/21 03:56:48;;;;;;;1.48;0.98;;;26.60;43.20;;;;;;4915561;28;45564;-83
2023/07/21 03:59:14;;;;;;;1.20;1.00;;;26.70;43.30;;;;;;4890891;28;47143;-83
2023/07/21 04:01:39;;;;;;;1.27;0.87;;;26.70;43.20;;;;;;4894311;28;45390;-84
2023/07/21 04:04:05;;;;;;;1.00;0.90;;;26.60;43.20;;;;;;4908407;28;45167;-84
2023/07/21 04:06:30;;;;;;;2.60;0.80;;;26.70;43.30;;;;;;4887550;28;45264;-83
2023/07/21 04:08:56;;;;;;;1.00;0.90;;;26.70;43.30;;;;;;4902328;28;47334;-82
2023/07/21 04:11:21;;;;;;;1.02;0.93;;;26.70;43.30;;;;;;4882080;28;45513;-82
2023/07/21 04:13:47;;;;;;;1.08;0.98;;;26.60;43.30;;;;;;4892618;28;44752;-84
2023/07/21 04:16:12;;;;;;;0.80;0.70;;;26.70;43.30;;;;;;4896587;28;45360;-83
2023/07/21 04:18:39;;;;;;;1.10;1.00;;;26.70;43.30;;;;;;4919325;28;45689;-84
2023/07/21 04:21:05;;;;;;;1.20;1.10;;;26.60;43.20;;;;;;4899834;28;45523;-83
2023/07/21 04:23:30;;;;;;;1.10;0.80;;;26.60;43.20;;;;;;4889254;28;45499;-82
2023/07/21 04:25:56;;;;;;;0.70;0.70;;;26.70;43.30;;;;;;4883362;28;45753;-82
2023/07/21 04:28:22;;;;;;;1.00;0.90;;;26.60;43.20;;;;;;4901954;28;47107;-83
2023/07/21 04:30:53;;;;;;;2.00;0.93;;;26.60;43.20;;;;;;4892863;28;45205;-84
2023/07/21 04:33:18;;;;;;;1.48;1.00;;;26.60;43.20;;;;;;4890347;28;44936;-88
2023/07/21 04:35:45;;;;;;;1.17;1.07;;;26.60;43.20;;;;;;4911815;28;45046;-84
2023/07/21 04:38:11;;;;;;;1.50;1.08;;;26.60;43.20;;;;;;4915301;28;46486;-82
2023/07/21 04:40:37;;;;;;;1.27;0.90;;;26.70;43.30;;;;;;4900679;28;45277;-84
2023/07/21 04:43:03;;;;;;;1.00;0.77;;;26.60;43.20;;;;;;4908248;28;45848;-82
2023/07/21 04:45:28;;;;;;;1.17;0.80;;;26.60;43.20;;;;;;4879423;28;45259;-83
2023/07/21 04:47:54;;;;;;;1.00;1.00;;;26.60;43.20;;;;;;4896493;28;46153;-82
2023/07/21 04:50:19;;;;;;;0.98;0.88;;;26.60;43.20;;;;;;4898969;28;45373;-83
2023/07/21 04:52:46;;;;;;;0.93;0.80;;;26.60;43.20;;;;;;4901301;28;45338;-82
2023/07/21 04:55:12;;;;;;;1.10;1.00;;;26.60;43.20;;;;;;4914251;28;45589;-83
2023/07/21 04:57:37;;;;;;;0.80;0.80;;;26.60;43.20;;;;;;4888598;28;46759;-82
2023/07/21 05:00:03;;;;;;;1.00;0.90;;;26.60;43.20;;;;;;4902368;28;45541;-87
2023/07/21 05:02:32;;;;;;;1.90;0.90;;;26.60;43.20;;;;;;4905890;28;45584;-84
2023/07/21 05:04:57;;;;;;;1.93;0.90;;;26.60;43.30;;;;;;4907329;28;45480;-82
2023/07/21 05:07:23;;;;;;;0.90;0.90;;;26.60;43.20;;;;;;4908325;28;45870;-82
2023/07/21 05:09:49;;;;;;;0.98;0.90;;;26.60;43.30;;;;;;4906852;28;45330;-85
2023/07/21 05:12:14;;;;;;;1.23;0.90;;;26.60;43.20;;;;;;4898266;28;44784;-82
2023/07/21 05:14:40;;;;;;;1.03;0.90;;;26.60;43.30;;;;;;4903888;28;45234;-82
2023/07/21 05:17:05;;;;;;;0.87;0.87;;;26.60;43.40;;;;;;4899157;28;45813;-83
2023/07/21 05:19:31;;;;;;;1.03;0.83;;;26.60;43.30;;;;;;4889460;28;45443;-91
2023/07/21 05:21:56;;;;;;;1.03;0.83;;;26.60;43.30;;;;;;4901022;28;45393;-83
2023/07/21 05:24:22;;;;;;;2.67;1.00;;;26.60;43.30;;;;;;4906465;28;45188;-83
2023/07/21 05:26:48;;;;;;;1.80;1.00;;;26.60;43.30;;;;;;4910529;28;46405;-85
2023/07/21 05:29:14;;;;;;;1.30;1.10;;;26.60;43.30;;;;;;4889240;28;45732;-82
2023/07/21 05:31:39;;;;;;;1.77;0.90;;;26.60;43.30;;;;;;4879531;28;45498;-83
2023/07/21 05:34:07;;;;;;;1.35;1.08;;;26.60;43.30;;;;;;4913660;28;45013;-83
2023/07/21 05:36:34;;;;;;;1.85;1.10;;;26.60;43.30;;;;;;4900331;28;46343;-86
2023/07/21 05:39:00;;;;;;;1.80;1.10;;;26.60;43.30;;;;;;4930111;28;45198;-85
2023/07/21 05:41:26;;;;;;;1.10;1.00;;;26.60;43.30;;;;;;4915331;28;45381;-83
2023/07/21 05:43:51;;;;;;;1.20;1.10;;;26.60;43.30;;;;;;4905145;28;45185;-82
2023/07/21 05:46:17;;;;;;;1.20;1.10;;;26.60;43.30;;;;;;4905561;28;45528;-81
2023/07/21 05:48:42;;;;;;;2.07;0.90;;;26.60;43.40;;;;;;4887273;28;44796;-81
2023/07/21 05:51:12;;;;;;;1.33;1.10;;;26.60;43.40;;;;;;4901405;28;45846;-83
2023/07/21 05:53:37;;;;;;;1.67;1.30;;;26.60;43.40;;;;;;4891996;28;45417;-83
2023/07/21 05:56:08;;;;;;;1.80;1.10;;;26.60;43.40;;;;;;4893558;28;47865;-83
2023/07/21 05:58:36;;;;;;;1.60;1.10;;;26.60;43.40;;;;;;4920760;28;45497;-83
2023/07/21 06:01:02;;;;;;;1.40;1.00;;;26.60;43.40;;;;;;4900431;28;45704;-83
2023/07/21 06:03:28;;;;;;;1.40;1.10;;;26.50;43.30;;;;;;4910910;28;45704;-84
2023/07/21 06:05:53;;;;;;;1.10;1.00;;;26.60;43.40;;;;;;4883255;28;47120;-81
2023/07/21 06:08:20;;;;;;;1.17;1.00;;;26.60;43.40;;;;;;4906220;28;45070;-83
2023/07/21 06:10:45;;;;;;;1.20;1.10;;;26.60;43.40;;;;;;4915833;28;45674;-81
2023/07/21 06:13:11;;;;;;;1.30;1.10;;;26.60;43.40;;;;;;4906597;28;45486;-85
2023/07/21 06:15:36;;;;;;;1.23;1.13;;;26.50;43.30;;;;;;4899886;28;46366;-82
2023/07/21 06:18:03;;;;;;;1.45;1.15;;;26.50;43.40;;;;;;4906827;28;45515;-83
2023/07/21 06:20:29;;;;;;;1.42;1.00;;;26.50;43.30;;;;;;4915508;28;45518;-81
2023/07/21 06:22:54;;;;;;;1.30;1.20;;;26.50;43.40;;;;;;4892247;28;45449;-82
2023/07/21 06:25:20;;;;;;;1.45;1.10;;;26.50;43.40;;;;;;4902043;28;46077;-82
2023/07/21 06:27:48;;;;;;;1.63;1.00;;;26.60;43.40;;;;;;4890511;28;45884;-85
2023/07/21 06:30:14;;;;;;;1.60;1.20;;;26.50;43.40;;;;;;4881622;28;45094;-85
2023/07/21 06:32:43;;;;;;;1.67;1.17;;;26.50;43.40;;;;;;4884387;28;45429;-84
2023/07/21 06:35:09;;;;;;;1.30;1.10;;;26.50;43.40;;;;;;4892981;28;45638;-87
2023/07/21 06:37:34;;;;;;;1.30;1.10;;;26.50;43.40;;;;;;4895249;28;45486;-83
2023/07/21 06:40:01;;;;;;;1.23;1.13;;;26.60;43.50;;;;;;4894149;28;45631;-82
2023/07/21 06:42:27;;;;;;;1.40;1.30;;;26.50;43.40;;;;;;4888693;28;45128;-81
2023/07/21 06:44:53;;;;;;;1.20;1.10;;;26.50;43.40;;;;;;4909250;28;45660;-83
2023/07/21 06:47:19;;;;;;;1.80;1.30;;;26.50;43.40;;;;;;4876100;28;45419;-82
2023/07/21 06:49:45;;;;;;;2.08;1.20;;;26.50;43.40;;;;;;4909743;28;45285;-83
2023/07/21 06:52:10;;;;;;;1.13;1.00;;;26.50;43.40;;;;;;4913170;28;45667;-83
2023/07/21 06:54:38;;;;;;;1.40;1.10;;;26.50;43.40;;;;;;4888818;28;47010;-84
2023/07/21 06:57:05;;;;;;;1.20;1.10;;;26.60;43.40;;;;;;4902003;28;45159;-84
2023/07/21 06:59:30;;;;;;;1.35;1.20;;;26.50;43.40;;;;;;4885354;28;45499;-84
2023/07/21 07:01:57;;;;;;;1.40;1.20;;;26.50;43.40;;;;;;4897974;28;45578;-83
2023/07/21 07:04:22;;;;;;;1.20;1.10;;;26.50;43.40;;;;;;4891944;28;47908;-84
2023/07/21 07:06:48;;;;;;;1.30;1.20;;;26.50;43.40;;;;;;4915535;28;44927;-81
2023/07/21 07:09:14;;;;;;;1.40;1.20;;;26.50;43.40;;;;;;4889221;28;45403;-82
2023/07/21 07:11:39;;;;;;;1.05;0.95;;;26.50;43.40;;;;;;4888635;28;45657;-82
2023/07/21 07:14:05;;;;;;;1.40;1.10;;;26.50;43.40;;;;;;4902539;28;47343;-83
2023/07/21 07:16:31;;;;;;;1.40;1.03;;;26.50;43.40;;;;;;4881624;28;44919;-83
2023/07/21 07:18:56;;;;;;;1.30;1.20;;;26.50;43.40;;;;;;4897533;28;45191;-82
2023/07/21 07:21:22;;;;;;;2.13;1.30;;;26.50;43.40;;;;;;4901627;28;44763;-82
2023/07/21 07:23:47;;;;;;;1.10;1.00;;;26.50;43.40;;;;;;4914977;28;45563;-84
2023/07/21 07:26:13;;;;;;;1.35;1.00;;;26.50;43.40;;;;;;4904112;28;45954;-82
2023/07/21 07:28:38;;;;;;;1.10;1.00;;;26.50;43.40;;;;;;4921581;28;45334;-83
2023/07/21 07:31:07;;;;;;;1.70;1.07;;;26.50;43.40;;;;;;4895792;28;45276;-83
2023/07/21 07:33:33;;;;;;;1.83;1.10;;;26.50;43.40;;;;;;4902262;28;47086;-82
2023/07/21 07:36:01;;;;;;;1.33;1.10;;;26.50;43.40;;;;;;4897917;28;45419;-82
2023/07/21 07:38:28;;;;;;;1.55;1.08;;;26.50;43.40;;;;;;4892205;28;45566;-83
2023/07/21 07:40:54;;;;;;;1.35;1.17;;;26.50;43.40;;;;;;4898126;28;45331;-81
2023/07/21 07:43:19;;;;;;;1.60;1.00;;;26.50;43.40;;;;;;4918929;28;46989;-83
2023/07/21 07:45:45;;;;;;;1.60;1.20;;;26.50;43.40;;;;;;4898052;28;45090;-82
2023/07/21 07:48:11;;;;;;;1.30;1.00;;;26.50;43.50;;;;;;4911882;28;45334;-82
2023/07/21 07:50:39;;;;;;;1.13;1.03;;;26.50;43.40;;;;;;4895214;28;45540;-82
2023/07/21 07:53:07;;;;;;;1.10;1.00;;;26.50;43.40;;;;;;4917746;28;45772;-82
2023/07/21 07:55:46;;;;;;;1.30;1.00;;;26.50;43.50;;;;;;4900227;28;45853;-82
2023/07/21 07:58:11;;;;;;;1.52;1.10;;;26.50;43.50;;;;;;4905473;28;44895;-83
2023/07/21 08:00:41;;;;;;;1.20;1.10;;;26.50;43.40;;;;;;4883861;28;44997;-85
2023/07/21 08:03:07;;;;;;;1.20;1.10;;;26.50;43.40;;;;;;4901725;28;46109;-83
2023/07/21 08:05:35;;;;;;;1.73;1.10;;;26.50;43.40;;;;;;4884275;28;45166;-83
2023/07/21 08:08:03;;;;;;;1.70;1.10;;;26.50;43.40;;;;;;4895895;28;45254;-82
2023/07/21 08:10:29;;;;;;;1.10;1.00;;;26.50;43.40;;;;;;4913161;28;45266;-84
2023/07/21 08:12:57;;;;;;;2.53;1.02;;;26.50;43.40;;;;;;4901418;28;66044;-84
2023/07/21 08:15:23;;;;;;;1.52;1.00;;;26.50;43.40;;;;;;4914443;28;45448;-83
2023/07/21 08:17:52;;;;;;;1.73;1.10;;;26.50;43.40;;;;;;4892903;28;45509;-83
2023/07/21 08:20:21;;;;;;;1.08;0.95;;;26.50;43.40;;;;;;4883506;28;45935;-83
2023/07/21 08:22:52;;;;;;;1.40;1.30;;;26.50;43.40;;;;;;4916750;28;46443;-81
2023/07/21 08:25:18;;;;;;;1.23;1.13;;;26.50;43.40;;;;;;4909663;28;45314;-82
2023/07/21 08:27:44;;;;;;;1.40;1.00;;;26.50;43.40;;;;;;4873840;28;45059;-83
2023/07/21 08:30:10;;;;;;;1.03;1.00;;;26.50;43.40;;;;;;4898136;28;45577;-88
2023/07/21 08:32:36;;;;;;;1.30;1.17;;;26.50;43.50;;;;;;4915907;28;45328;-84
2023/07/21 08:35:03;;;;;;;1.45;1.10;;;26.50;43.40;;;;;;4892694;28;45299;-85
2023/07/21 08:37:30;;;;;;;1.48;1.10;;;26.50;43.40;;;;;;4881904;28;45707;-83
2023/07/21 08:39:55;;;;;;;1.35;1.25;;;26.50;43.40;;;;;;4914452;28;45277;-85
2023/07/21 08:42:21;;;;;;;1.57;1.03;;;26.50;43.40;;;;;;4886070;28;47167;-83
2023/07/21 08:44:47;;;;;;;1.03;0.93;;;26.50;43.40;;;;;;4901615;28;45619;-86
2023/07/21 08:47:13;;;;;;;1.47;1.17;;;26.50;43.40;;;;;;4909024;28;45284;-84
2023/07/21 08:49:40;;;;;;;1.70;1.20;;;26.50;43.40;;;;;;4885070;28;45298;-83
2023/07/21 08:52:06;;;;;;;1.20;1.10;;;26.50;43.40;;;;;;4911997;28;45366;-82
2023/07/21 08:54:32;;;;;;;1.50;1.20;;;26.50;43.40;;;;;;4906649;28;45510;-84
2023/07/21 08:56:57;;;;;;;1.40;1.30;;;26.50;43.40;;;;;;4882519;28;45473;-85
2023/07/21 08:59:23;;;;;;;1.47;1.10;;;26.50;43.40;;;;;;4887503;28;45908;-83
2023/07/21 09:01:48;;;;;;;1.43;1.17;;;26.50;43.50;;;;;;4881032;28;47002;-84
2023/07/21 09:04:22;;;;;;;1.37;1.07;;;26.50;43.40;;;;;;4920929;28;45296;-83
2023/07/21 09:06:56;;;;;;;1.23;1.10;;;26.50;43.40;;;;;;4894083;28;45298;-83
2023/07/21 09:09:23;;;;;;;1.15;0.93;;;26.50;43.40;;;;;;4914654;28;45610;-84
2023/07/21 09:11:49;;;;;;;1.23;1.00;;;26.40;43.40;;;;;;4897850;28;47150;-84
2023/07/21 09:14:15;;;;;;;1.00;0.90;;;26.50;43.50;;;;;;4904286;28;45268;-84
2023/07/21 09:16:42;;;;;;;1.63;1.10;;;26.50;43.40;;;;;;4897640;28;45223;-85
2023/07/21 09:19:08;;;;;;;1.50;1.10;;;26.50;43.40;;;;;;4899242;28;45162;-82
2023/07/21 09:21:35;;;;;;;1.40;1.20;;;26.50;43.40;;;;;;4908283;28;45388;-83
2023/07/21 09:24:02;;;;;;;1.73;1.20;;;26.50;43.40;;;;;;4905024;28;45236;-85
2023/07/21 09:26:28;;;;;;;1.33;1.13;;;26.50;43.40;;;;;;4883860;28;45386;-82
2023/07/21 09:28:53;;;;;;;1.40;1.30;;;26.50;43.50;;;;;;4875834;28;45932;-82
2023/07/21 09:31:29;;;;;;;1.10;1.00;;;26.50;43.40;;;;;;4893000;28;45640;-83
2023/07/21 09:33:56;;;;;;;1.97;1.20;;;26.50;43.40;;;;;;4898948;28;45069;-86
2023/07/21 09:36:22;;;;;;;1.23;1.08;;;26.50;43.40;;;;;;4897672;28;45993;-83
2023/07/21 09:38:48;;;;;;;1.30;1.20;;;26.50;43.40;;;;;;4918993;28;45879;-83
2023/07/21 09:41:14;;;;;;;1.77;1.00;;;26.50;43.40;;;;;;4912057;28;46129;-82
2023/07/21 09:43:40;;;;;;;0.88;0.82;;;26.50;43.40;;;;;;4903275;28;46312;-83
2023/07/21 09:46:10;;;;;;;2.10;1.35;;;26.50;43.40;;;;;;4896549;28;45137;-83
2023/07/21 09:48:36;;;;;;;1.38;1.10;;;26.50;43.40;;;;;;4885795;28;45337;-84
2023/07/21 09:51:03;;;;;;;1.30;1.20;;;26.50;43.40;;;;;;4888127;28;47248;-84
2023/07/21 09:53:38;;;;;;;1.90;1.20;;;26.50;43.40;;;;;;4907305;28;45514;-82
2023/07/21 09:56:04;;;;;;;1.45;1.10;;;26.50;43.40;;;;;;4892213;28;44645;-83
2023/07/21 09:58:31;;;;;;;1.00;0.90;;;26.50;43.40;;;;;;4869920;28;45582;-85
2023/07/21 10:01:01;;;;;;;1.17;1.00;;;26.50;43.40;;;;;;4896829;28;45573;-82
2023/07/21 10:03:26;;;;;;;2.10;1.10;;;26.50;43.40;;;;;;4906163;28;45466;-86
2023/07/21 10:05:52;;;;;;;1.20;1.10;;;26.50;43.40;;;;;;4886313;28;45169;-84
2023/07/21 10:08:18;;;;;;;1.75;1.30;;;26.50;43.40;;;;;;4889701;28;44784;-82
2023/07/21 10:10:44;;;;;;;1.27;0.90;;;26.50;43.40;;;;;;4905016;28;46175;-83
2023/07/21 10:13:09;;;;;;;1.13;1.03;;;26.50;43.40;;;;;;4891570;28;45437;-82
2023/07/21 10:15:36;;;;;;;1.30;1.00;;;26.50;43.40;;;;;;4885640;28;45273;-84
2023/07/21 10:18:08;;;;;;;1.05;1.00;;;26.50;43.40;;;;;;4905936;28;45351;-83
2023/07/21 10:20:37;;;;;;;1.48;1.10;;;26.50;43.40;;;;;;4915803;28;45285;-83
2023/07/21 10:23:02;;;;;;;1.53;1.10;;;26.60;43.50;;;;;;4939738;28;45182;-85
2023/07/21 10:25:28;;;;;;;1.17;1.07;;;26.50;43.40;;;;;;4907232;28;45900;-83
2023/07/21 10:28:03;;;;;;;2.20;1.30;;;26.50;43.40;;;;;;4904851;28;45615;-86
2023/07/21 10:30:28;;;;;;;2.00;1.20;;;26.50;43.40;;;;;;4903564;28;45476;-83
2023/07/21 10:32:54;;;;;;;1.40;0.97;;;26.50;43.40;;;;;;4922533;28;45799;-84
2023/07/21 10:35:38;;;;;;;1.20;1.00;;;26.50;43.40;;;;;;4903659;28;45368;-83
2023/07/21 10:38:13;;;;;;;1.25;1.13;;;26.50;43.40;;;;;;4891042;28;45285;-83
2023/07/21 10:40:43;;;;;;;1.20;0.90;;;26.50;43.40;;;;;;4923464;28;45261;-83
2023/07/21 10:43:09;;;;;;;1.27;1.17;;;26.50;43.40;;;;;;4888720;28;45602;-82
2023/07/21 10:45:35;;;;;;;2.17;1.03;;;26.50;43.40;;;;;;4895571;28;45353;-83
2023/07/21 10:48:13;;;;;;;1.27;0.93;;;26.50;43.40;;;;;;4888431;28;45870;-83
2023/07/21 10:50:47;;;;;;;2.30;1.00;;;26.50;43.40;;;;;;4918629;28;47349;-82
2023/07/21 10:53:12;;;;;;;1.02;1.00;;;26.50;43.40;;;;;;4905632;28;44607;-83
2023/07/21 10:55:38;;;;;;;1.38;0.95;;;26.50;43.40;;;;;;4917141;28;45560;-82
2023/07/21 10:58:04;;;;;;;1.58;1.20;;;26.50;43.40;;;;;;4892261;28;45505;-83
2023/07/21 11:00:29;;;;;;;1.63;1.00;;;26.50;43.40;;;;;;4913139;28;46802;-82
2023/07/21 11:02:56;;;;;;;1.17;1.08;;;26.50;43.40;;;;;;4905864;28;45247;-82
2023/07/21 11:05:22;;;;;;;1.42;1.10;;;26.50;43.40;;;;;;4895227;28;44913;-83
2023/07/21 11:07:48;;;;;;;2.08;1.20;;;26.50;43.40;;;;;;4916004;28;44927;-84
2023/07/21 11:10:15;;;;;;;1.50;1.05;;;26.50;43.30;;;;;;4911822;28;45581;-83
2023/07/21 11:12:40;;;;;;;1.15;1.00;;;26.50;43.40;;;;;;4897422;28;45213;-82
2023/07/21 11:15:08;;;;;;;0.90;0.90;;;26.50;43.40;;;;;;4898737;28;45583;-84
2023/07/21 11:17:34;;;;;;;1.55;0.93;;;26.50;43.40;;;;;;4889159;28;46480;-83
2023/07/21 11:20:06;;;;;;;1.33;0.90;;;26.50;43.40;;;;;;4897307;28;46104;-84
2023/07/21 11:22:33;;;;;;;1.20;1.08;;;26.50;43.30;;;;;;4881961;28;45529;-83
2023/07/21 11:25:10;;;;;;;1.55;1.08;;;26.50;43.40;;;;;;4901671;28;45829;-86
2023/07/21 11:27:41;;;;;;;2.08;1.15;;;26.50;43.40;;;;;;4914109;28;45417;-84
2023/07/21 11:30:07;;;;;;;0.88;0.88;;;26.50;43.40;;;;;;4890476;28;47811;-87
2023/07/21 11:32:34;;;;;;;1.17;0.97;;;26.50;43.40;;;;;;4894718;28;45560;-81
2023/07/21 11:35:02;;;;;;;1.25;1.13;;;26.50;43.30;;;;;;4913380;28;45415;-85
2023/07/21 11:37:42;;;;;;;1.65;1.00;;;26.50;43.30;;;;;;4899393;28;45286;-82
2023/07/21 11:40:10;;;;;;;1.83;0.90;;;26.60;43.40;;;;;;4876923;28;47949;-82
2023/07/21 11:42:49;;;;;;;1.17;0.90;;;26.50;43.30;;;;;;4908082;28;45156;-82
2023/07/21 11:45:40;;;;;;;1.40;1.15;;;26.50;43.30;;;;;;4904552;28;46076;-82
2023/07/21 11:48:15;;;;;;;1.60;1.00;;;26.60;43.40;;;;;;4906649;28;45275;-83
2023/07/21 11:50:47;;;;;;;1.50;1.00;;;26.50;44.00;;;;;;4906701;28;45561;-83
2023/07/21 11:53:13;;;;;;;1.27;0.90;;;26.50;43.30;;;;;;4900837;28;45250;-82
2023/07/21 11:55:38;;;;;;;1.00;0.90;;;26.50;43.30;;;;;;4897892;28;45114;-83
2023/07/21 11:58:04;;;;;;;1.23;1.10;;;26.50;43.30;;;;;;4895172;28;45561;-82
2023/07/21 12:00:31;;;;;;;1.43;0.90;;;26.60;43.30;;;;;;4896147;28;46953;-86
2023/07/21 12:02:59;;;;;;;1.48;0.90;;;26.50;43.30;;;;;;4880238;29;45316;-82
2023/07/21 12:05:25;;;;;;;0.93;0.90;;;26.60;43.30;;;;;;4862749;29;45222;-83
2023/07/21 12:07:52;;;;;;;1.17;1.07;;;26.50;43.20;;;;;;4908911;28;45291;-84
2023/07/21 12:10:18;;;;;;;1.00;0.90;;;26.60;43.30;;;;;;4894607;28;47184;-84
2023/07/21 12:12:44;;;;;;;1.05;0.95;;;26.50;43.30;;;;;;4863058;29;45282;-84
2023/07/21 12:15:10;;;;;;;1.50;1.10;;;26.50;43.30;;;;;;4845774;28;45414;-87
2023/07/21 12:17:36;;;;;;;1.20;1.10;;;26.60;43.30;;;;;;4864827;29;45568;-83
2023/07/21 12:20:11;;;;;;;1.10;1.00;;;26.60;43.30;;;;;;4852143;29;47390;-87
2023/07/21 12:22:40;;;;;;;0.95;0.90;;;26.60;43.30;;;;;;4867973;28;45511;-83
2023/07/21 12:25:09;;;;;;;1.80;1.20;;;26.60;43.30;;;;;;4916963;28;45172;-87
2023/07/21 12:27:35;;;;;;;1.40;0.90;;;26.60;43.30;;;;;;4854116;29;45478;-82
2023/07/21 12:30:06;;;;;;;1.10;1.00;;;26.60;43.30;;;;;;4866933;29;46931;-87
2023/07/21 12:32:31;;;;;;;1.30;1.10;;;26.60;43.30;;;;;;4875447;28;45400;-83
2023/07/21 12:34:57;;;;;;;1.13;0.90;;;26.60;43.30;;;;;;4896398;28;44779;-83
2023/07/21 12:37:23;;;;;;;1.20;1.00;;;26.60;43.30;;;;;;4895605;28;45901;-83
2023/07/21 12:39:49;;;;;;;1.20;1.10;;;26.60;43.30;;;;;;4869741;29;47236;-84
2023/07/21 12:42:15;;;;;;;1.30;1.02;;;26.60;43.30;;;;;;4856425;28;45614;-82
2023/07/21 12:44:40;;;;;;;1.30;1.00;;;26.60;43.30;;;;;;4860693;28;45533;-86
2023/07/21 12:47:06;;;;;;;1.17;0.90;;;26.50;43.20;;;;;;4854936;29;45161;-85
2023/07/21 12:49:32;;;;;;;1.23;1.00;;;26.60;43.30;;;;;;4908253;28;45410;-83
2023/07/21 12:51:58;;;;;;;1.98;1.17;;;26.50;43.20;;;;;;4870224;28;45535;-82
2023/07/21 12:54:23;;;;;;;1.30;1.08;;;26.60;43.30;;;;;;4896996;28;45193;-83
2023/07/21 12:56:49;;;;;;;1.50;1.10;;;26.50;43.20;;;;;;4843649;28;45500;-86
2023/07/21 12:59:14;;;;;;;1.08;0.90;;;26.60;43.30;;;;;;4900689;28;45232;-84
2023/07/21 13:01:40;;;;;;;1.50;0.80;;;26.50;43.20;;;;;;4869014;28;45325;-84
2023/07/21 13:04:05;;;;;;;1.50;1.10;;;26.60;43.20;;;;;;4912334;28;45186;-88
2023/07/21 13:06:31;;;;;;;1.20;1.00;;;26.60;43.30;;;;;;4900975;28;45669;-82
2023/07/21 13:08:56;;;;;;;1.03;0.93;;;26.60;43.20;;;;;;4913824;28;47411;-87
2023/07/21 13:11:22;;;;;;;1.13;1.03;;;26.60;43.20;;;;;;4910450;28;45473;-84
2023/07/21 13:13:51;;;;;;;0.93;0.82;;;26.60;43.20;;;;;;4899356;28;45206;-86
2023/07/21 13:16:17;;;;;;;0.95;0.85;;;26.60;43.20;;;;;;4891878;28;45635;-82
2023/07/21 13:18:42;;;;;;;1.33;0.90;;;26.60;43.20;;;;;;4912234;28;47219;-84
2023/07/21 13:21:08;;;;;;;1.10;0.90;;;26.60;43.20;;;;;;4881731;28;45177;-88
2023/07/21 13:23:33;;;;;;;1.25;0.90;;;26.60;43.20;;;;;;4900992;28;45556;-82
2023/07/21 13:25:59;;;;;;;1.00;0.90;;;26.60;43.20;;;;;;4897326;28;44869;-86
2023/07/21 13:28:24;;;;;;;1.27;0.90;;;26.60;43.20;;;;;;4898526;28;45975;-83
2023/07/21 13:30:50;;;;;;;0.90;0.90;;;26.60;43.20;;;;;;4901503;28;45283;-82
2023/07/21 13:33:15;;;;;;;1.67;0.90;;;26.60;43.20;;;;;;4916454;28;45315;-88
2023/07/21 13:35:41;;;;;;;1.10;1.00;;;26.60;43.20;;;;;;4914604;28;45243;-82
2023/07/21 13:38:07;;;;;;;0.87;0.80;;;26.60;43.20;;;;;;4901923;28;47838;-83
2023/07/21 13:40:32;;;;;;;0.80;0.80;;;26.60;43.20;;;;;;4901810;28;45320;-82
2023/07/21 13:42:58;;;;;;;1.10;1.00;;;26.60;43.20;;;;;;4890431;28;45205;-83
2023/07/21 13:45:23;;;;;;;1.00;0.90;;;26.60;43.20;;;;;;4896185;28;45165;-83
2023/07/21 13:47:49;;;;;;;1.00;0.90;;;26.60;43.20;;;;;;4886303;28;45304;-82
2023/07/21 13:50:14;;;;;;;1.30;1.10;;;26.60;43.20;;;;;;4915750;28;45237;-83
2023/07/21 13:52:40;;;;;;;0.80;0.80;;;26.60;43.20;;;;;;4902929;28;45295;-82
2023/07/21 13:55:06;;;;;;;1.60;0.90;;;26.60;43.10;;;;;;4895273;28;45550;-83
2023/07/21 13:57:32;;;;;;;1.33;1.00;;;26.60;43.20;;;;;;4899605;28;45295;-86
2023/07/21 13:59:57;;;;;;;1.00;0.80;;;26.60;43.10;;;;;;4900005;28;45358;-84
2023/07/21 14:02:23;;;;;;;0.87;0.87;;;26.60;43.20;;;;;;4898711;28;45238;-82
2023/07/21 14:04:49;;;;;;;1.00;0.90;;;26.60;43.20;;;;;;4902871;28;44938;-82
2023/07/21 14:07:14;;;;;;;0.80;0.80;;;26.60;43.20;;;;;;4886790;28;45100;-83
2023/07/21 14:09:40;;;;;;;1.80;1.00;;;26.60;43.10;;;;;;4884456;28;45141;-82
2023/07/21 14:12:06;;;;;;;1.43;1.00;;;26.60;43.10;;;;;;4885175;28;45606;-82
2023/07/21 14:14:31;;;;;;;0.87;0.80;;;26.60;43.10;;;;;;4916688;28;45365;-82
2023/07/21 14:16:57;;;;;;;1.20;1.00;;;26.60;43.10;;;;;;4866274;28;47237;-82
2023/07/21 14:19:22;;;;;;;0.90;0.80;;;26.60;43.10;;;;;;4914393;28;45995;-84
2023/07/21 14:21:48;;;;;;;0.90;0.77;;;26.60;43.10;;;;;;4899060;28;44905;-83
2023/07/21 14:24:14;;;;;;;1.00;0.90;;;26.60;43.10;;;;;;4904809;28;45255;-82
2023/07/21 14:26:39;;;;;;;1.02;0.90;;;26.70;43.20;;;;;;4915423;28;45451;-81
2023/07/21 14:29:05;;;;;;;0.77;0.77;;;26.60;43.10;;;;;;4920744;28;45219;-82
2023/07/21 14:31:33;;;;;;;1.20;1.00;;;26.60;43.10;;;;;;4890642;28;45320;-81
2023/07/21 14:33:59;;;;;;;0.85;0.73;;;26.60;43.10;;;;;;4908278;28;44802;-83
2023/07/21 14:36:24;;;;;;;0.98;0.88;;;26.60;43.10;;;;;;4897113;28;46555;-83
2023/07/21 14:38:50;;;;;;;0.80;0.77;;;26.60;43.20;;;;;;4901172;28;45282;-83
2023/07/21 14:41:15;;;;;;;0.85;0.77;;;26.60;43.10;;;;;;4898959;28;45141;-82
2023/07/21 14:43:41;;;;;;;1.85;0.90;;;26.60;43.10;;;;;;4900608;28;45232;-82
2023/07/21 14:46:07;;;;;;;1.30;0.80;;;26.60;43.10;;;;;;4893961;28;45695;-83
2023/07/21 14:48:32;;;;;;;1.30;0.90;;;26.60;43.10;;;;;;4916505;28;45319;-82
2023/07/21 14:50:59;;;;;;;0.90;0.90;;;26.60;43.10;;;;;;4897321;28;45450;-82
2023/07/21 14:53:25;;;;;;;1.13;0.90;;;26.60;43.10;;;;;;4899064;28;45161;-83
2023/07/21 14:55:51;;;;;;;1.33;1.00;;;26.60;43.10;;;;;;4903331;28;47222;-83
2023/07/21 14:58:16;;;;;;;1.08;0.93;;;26.70;43.10;;;;;;4915624;28;45219;-82
2023/07/21 15:00:42;;;;;;;1.20;0.90;;;26.60;43.10;;;;;;4909514;28;45998;-84
2023/07/21 15:03:08;;;;;;;0.98;0.82;;;26.70;43.20;;;;;;4903300;28;46568;-83
2023/07/21 15:05:33;;;;;;;0.80;0.73;;;26.60;43.10;;;;;;4880563;28;47325;-83
2023/07/21 15:07:59;;;;;;;0.90;0.90;;;26.70;43.10;;;;;;4895218;28;44808;-86
2023/07/21 15:10:24;;;;;;;0.95;0.90;;;26.70;43.10;;;;;;4888703;28;45410;-86
2023/07/21 15:12:50;;;;;;;1.17;0.90;;;26.60;43.10;;;;;;4921404;28;45806;-83
2023/07/21 15:15:16;;;;;;;0.80;0.80;;;26.60;43.10;;;;;;4887576;28;47759;-85
2023/07/21 15:17:41;;;;;;;1.00;0.90;;;26.60;43.10;;;;;;4922904;28;44963;-82
2023/07/21 15:20:15;;;;;;;0.90;0.80;;;26.60;43.10;;;;;;4886511;28;45531;-86
2023/07/21 15:22:41;;;;;;;1.45;0.90;;;26.60;43.70;;;;;;4887072;28;45499;-83
2023/07/21 15:25:07;;;;;;;1.20;1.10;;;26.70;43.10;;;;;;4885056;28;46723;-85
2023/07/21 15:27:32;;;;;;;1.20;0.90;;;26.60;43.00;;;;;;4889861;28;46037;-83
2023/07/21 15:29:58;;;;;;;2.27;1.10;;;26.60;43.00;;;;;;4892844;28;45561;-83
2023/07/21 15:32:23;;;;;;;1.10;0.90;;;26.60;43.00;;;;;;4879335;28;45487;-83
2023/07/21 15:34:49;;;;;;;1.00;0.90;;;26.70;43.10;;;;;;4897095;28;47075;-83
2023/07/21 15:37:14;;;;;;;1.17;1.03;;;26.60;43.00;;;;;;4887126;28;45047;-82
2023/07/21 15:39:40;;;;;;;1.15;0.90;;;26.60;43.00;;;;;;4916356;28;45211;-81
2023/07/21 15:42:06;;;;;;;1.30;0.85;;;26.60;43.00;;;;;;4891639;28;45203;-86
2023/07/21 15:44:32;;;;;;;0.77;0.70;;;26.60;43.00;;;;;;4918912;28;46415;-82